International Virtual Aviation Organisation

Russian Federation and Kazakhstan MCD

 
UWWW 250430Z 14006MPS 9999 OVC008 M03/M04 Q1014 R15/450438 NOSIG RMK QFE749/0999
QNH:(hPa/inHg/mmHg)1014 / 29.94 / 761
QFE:(hPa/inHg/mmHg)996 / 29.42 / 747
Temperature-3
Dew Point-4
Visibility> 10000
Weather
Cloud CoverOVC (800);
Transition Height900 m./3500 ft.
Transition LevelFL50
SQUAWK